createdAt,value
2022-08-22T00:03:47.487Z,18.07
2022-08-22T00:18:59.936Z,18.07
2022-08-22T00:34:10.879Z,18.04
2022-08-22T00:49:33.878Z,17.97
2022-08-22T01:05:00.341Z,17.85
2022-08-22T01:20:29.774Z,17.82
2022-08-22T01:36:18.587Z,17.56
2022-08-22T01:51:29.956Z,17.53
2022-08-22T02:06:44.835Z,17.37
2022-08-22T02:21:56.019Z,17.22
2022-08-22T02:37:09.912Z,17.01
2022-08-22T02:52:22.358Z,16.71
2022-08-22T03:07:39.597Z,16.41
2022-08-22T03:22:50.258Z,16.29
2022-08-22T03:38:09.471Z,16.07
2022-08-22T03:53:37.642Z,16.17
2022-08-22T04:09:24.429Z,16.22
2022-08-22T04:24:52.475Z,16.01
2022-08-22T04:40:03.187Z,15.73
2022-08-22T04:55:19.296Z,15.51
2022-08-22T05:10:27.881Z,15.73
2022-08-22T05:25:36.535Z,16.11
2022-08-22T05:40:43.341Z,17.24
2022-08-22T05:55:58.010Z,18.46
2022-08-22T06:11:08.561Z,18.63
2022-08-22T06:26:20.623Z,18.62
2022-08-22T06:41:31.002Z,19.14
2022-08-22T06:56:40.867Z,20.99
2022-08-22T07:11:46.645Z,22.91
2022-08-22T07:27:06.120Z,24.09
2022-08-22T07:42:19.257Z,24.90
2022-08-22T07:57:31.919Z,25.87
2022-08-22T08:12:42.502Z,26.31
2022-08-22T08:28:06.132Z,26.60
2022-08-22T08:43:34.639Z,27.67
2022-08-22T08:58:46.499Z,27.99
2022-08-22T09:14:04.440Z,28.56
2022-08-22T09:29:32.696Z,29.13
2022-08-22T09:44:48.821Z,30.16
2022-08-22T10:00:13.943Z,30.77
2022-08-22T10:15:25.280Z,30.04
2022-08-22T10:30:37.590Z,30.86
2022-08-22T10:45:47.449Z,31.29
2022-08-22T11:00:56.436Z,30.97
2022-08-22T11:16:11.059Z,31.39
2022-08-22T11:31:24.807Z,32.14
2022-08-22T11:46:33.723Z,32.29
2022-08-22T12:01:45.774Z,33.38
2022-08-22T12:17:51.128Z,32.73
2022-08-22T12:33:13.151Z,32.04
2022-08-22T12:48:37.014Z,32.99
2022-08-22T13:03:48.743Z,31.13
2022-08-22T13:18:58.566Z,31.80
2022-08-22T13:34:08.353Z,32.32
2022-08-22T13:49:22.931Z,32.41
2022-08-22T14:04:36.249Z,31.22
2022-08-22T14:19:53.171Z,30.54
2022-08-22T14:35:23.586Z,31.39
2022-08-22T14:50:53.054Z,30.61
2022-08-22T15:06:02.700Z,29.90
2022-08-22T15:21:11.302Z,30.51
2022-08-22T15:36:21.556Z,29.67
2022-08-22T15:51:42.063Z,29.48
2022-08-22T16:06:52.627Z,29.35
2022-08-22T16:22:15.482Z,28.99
2022-08-22T16:37:45.869Z,28.80
2022-08-22T16:53:01.095Z,28.58
2022-08-22T17:08:30.052Z,28.17
2022-08-22T17:23:55.578Z,27.31
2022-08-22T17:39:10.398Z,26.24
2022-08-22T17:54:22.071Z,26.02
2022-08-22T18:09:36.270Z,25.65
2022-08-22T18:24:47.725Z,24.89
2022-08-22T18:40:00.338Z,24.53
2022-08-22T18:55:39.979Z,24.09
2022-08-22T19:10:55.837Z,23.83
2022-08-22T19:26:31.326Z,23.20
2022-08-22T19:41:57.201Z,22.71
2022-08-22T19:57:11.226Z,21.92
2022-08-22T20:12:24.538Z,21.46
2022-08-22T20:27:34.424Z,20.83
2022-08-22T20:42:44.403Z,20.49
2022-08-22T20:57:53.269Z,20.30
2022-08-22T21:13:10.902Z,20.06
2022-08-22T21:28:27.851Z,19.87
2022-08-22T21:43:37.133Z,19.57
2022-08-22T21:58:43.738Z,19.17
2022-08-22T22:13:49.346Z,18.83
2022-08-22T22:28:54.936Z,18.56
2022-08-22T22:44:00.589Z,18.25
2022-08-22T22:59:13.257Z,17.97
2022-08-22T23:14:19.493Z,17.64
2022-08-22T23:29:25.555Z,17.55
2022-08-22T23:44:34.690Z,17.36
2022-08-22T23:59:48.491Z,17.30
